sensor_id;sensor_type;location;lat;lon;timestamp;P1;durP1;ratioP1;P2;durP2;ratioP2
56599;SDS011;51832;48.152;11.530;2024-03-23T00:52:43;2.65;;;1.90;;
56599;SDS011;51832;48.152;11.530;2024-03-23T00:57:45;3.28;;;1.75;;
56599;SDS011;51832;48.152;11.530;2024-03-23T01:02:46;2.92;;;1.90;;
56599;SDS011;51832;48.152;11.530;2024-03-23T01:07:46;3.70;;;1.80;;
56599;SDS011;51832;48.152;11.530;2024-03-23T01:12:47;2.58;;;2.03;;
56599;SDS011;51832;48.152;11.530;2024-03-23T01:17:47;3.35;;;1.77;;
56599;SDS011;51832;48.152;11.530;2024-03-23T01:22:48;1.83;;;1.67;;
56599;SDS011;51832;48.152;11.530;2024-03-23T01:27:48;3.25;;;1.77;;
56599;SDS011;51832;48.152;11.530;2024-03-23T01:32:49;3.38;;;1.88;;
56599;SDS011;51832;48.152;11.530;2024-03-23T01:37:49;2.28;;;1.70;;
56599;SDS011;51832;48.152;11.530;2024-03-23T01:42:56;1.92;;;1.70;;
56599;SDS011;51832;48.152;11.530;2024-03-23T01:47:58;2.05;;;1.80;;
56599;SDS011;51832;48.152;11.530;2024-03-23T01:53:02;3.70;;;1.92;;
56599;SDS011;51832;48.152;11.530;2024-03-23T01:58:05;2.30;;;1.83;;
56599;SDS011;51832;48.152;11.530;2024-03-23T02:03:27;2.83;;;2.10;;
56599;SDS011;51832;48.152;11.530;2024-03-23T02:08:28;1.70;;;1.60;;
56599;SDS011;51832;48.152;11.530;2024-03-23T02:13:30;1.75;;;1.60;;
56599;SDS011;51832;48.152;11.530;2024-03-23T02:18:35;3.22;;;1.58;;
56599;SDS011;51832;48.152;11.530;2024-03-23T02:23:36;3.20;;;2.00;;
56599;SDS011;51832;48.152;11.530;2024-03-23T02:28:36;4.40;;;2.10;;
56599;SDS011;51832;48.152;11.530;2024-03-23T02:33:37;4.43;;;2.60;;
56599;SDS011;51832;48.152;11.530;2024-03-23T02:38:38;3.97;;;2.47;;
56599;SDS011;51832;48.152;11.530;2024-03-23T02:43:38;2.40;;;1.73;;
56599;SDS011;51832;48.152;11.530;2024-03-23T02:48:39;2.80;;;2.03;;
56599;SDS011;51832;48.152;11.530;2024-03-23T02:53:39;2.88;;;1.83;;
56599;SDS011;51832;48.152;11.530;2024-03-23T02:58:40;3.65;;;1.90;;
56599;SDS011;51832;48.152;11.530;2024-03-23T03:03:40;2.35;;;1.88;;
56599;SDS011;51832;48.152;11.530;2024-03-23T03:08:41;3.28;;;1.90;;
56599;SDS011;51832;48.152;11.530;2024-03-23T03:13:41;2.13;;;1.90;;
56599;SDS011;51832;48.152;11.530;2024-03-23T03:18:42;3.10;;;2.10;;
56599;SDS011;51832;48.152;11.530;2024-03-23T03:23:43;2.50;;;1.85;;
56599;SDS011;51832;48.152;11.530;2024-03-23T03:28:44;1.73;;;1.63;;
56599;SDS011;51832;48.152;11.530;2024-03-23T03:33:49;2.00;;;1.80;;
56599;SDS011;51832;48.152;11.530;2024-03-23T03:38:50;2.55;;;2.10;;
56599;SDS011;51832;48.152;11.530;2024-03-23T03:43:51;2.47;;;2.00;;
56599;SDS011;51832;48.152;11.530;2024-03-23T03:48:51;2.65;;;1.77;;
56599;SDS011;51832;48.152;11.530;2024-03-23T03:53:52;2.30;;;2.10;;
56599;SDS011;51832;48.152;11.530;2024-03-23T03:58:52;2.10;;;1.90;;
56599;SDS011;51832;48.152;11.530;2024-03-23T04:03:53;2.13;;;1.92;;
56599;SDS011;51832;48.152;11.530;2024-03-23T04:08:54;4.25;;;2.20;;
56599;SDS011;51832;48.152;11.530;2024-03-23T04:13:54;2.50;;;2.20;;
56599;SDS011;51832;48.152;11.530;2024-03-23T04:18:55;3.70;;;2.10;;
56599;SDS011;51832;48.152;11.530;2024-03-23T04:23:55;2.17;;;1.98;;
56599;SDS011;51832;48.152;11.530;2024-03-23T04:28:56;3.10;;;2.10;;
56599;SDS011;51832;48.152;11.530;2024-03-23T04:33:56;4.35;;;2.20;;
56599;SDS011;51832;48.152;11.530;2024-03-23T04:38:58;2.40;;;2.20;;
56599;SDS011;51832;48.152;11.530;2024-03-23T04:44:00;2.83;;;1.83;;
56599;SDS011;51832;48.152;11.530;2024-03-23T04:49:00;2.10;;;1.90;;
56599;SDS011;51832;48.152;11.530;2024-03-23T04:54:01;2.05;;;1.70;;
56599;SDS011;51832;48.152;11.530;2024-03-23T04:59:01;2.40;;;1.80;;
56599;SDS011;51832;48.152;11.530;2024-03-23T05:04:04;2.58;;;1.80;;
56599;SDS011;51832;48.152;11.530;2024-03-23T05:09:05;3.15;;;1.70;;
56599;SDS011;51832;48.152;11.530;2024-03-23T05:14:12;2.55;;;1.70;;
56599;SDS011;51832;48.152;11.530;2024-03-23T05:19:13;2.50;;;1.90;;
56599;SDS011;51832;48.152;11.530;2024-03-23T05:24:14;3.17;;;2.20;;
56599;SDS011;51832;48.152;11.530;2024-03-23T05:29:14;3.67;;;1.90;;
56599;SDS011;51832;48.152;11.530;2024-03-23T05:34:17;2.53;;;2.33;;
56599;SDS011;51832;48.152;11.530;2024-03-23T05:39:18;1.90;;;1.65;;
56599;SDS011;51832;48.152;11.530;2024-03-23T05:44:22;1.98;;;1.80;;
56599;SDS011;51832;48.152;11.530;2024-03-23T05:49:22;4.60;;;1.77;;
56599;SDS011;51832;48.152;11.530;2024-03-23T05:54:23;2.92;;;1.40;;
56599;SDS011;51832;48.152;11.530;2024-03-23T05:59:23;2.58;;;1.77;;
56599;SDS011;51832;48.152;11.530;2024-03-23T06:04:24;1.85;;;1.50;;
56599;SDS011;51832;48.152;11.530;2024-03-23T06:09:24;3.50;;;2.13;;
56599;SDS011;51832;48.152;11.530;2024-03-23T06:14:25;1.95;;;1.60;;
56599;SDS011;51832;48.152;11.530;2024-03-23T06:19:27;1.83;;;1.48;;
56599;SDS011;51832;48.152;11.530;2024-03-23T06:24:28;1.80;;;1.48;;
56599;SDS011;51832;48.152;11.530;2024-03-23T06:29:28;2.25;;;1.42;;
56599;SDS011;51832;48.152;11.530;2024-03-23T06:34:29;2.35;;;1.35;;
56599;SDS011;51832;48.152;11.530;2024-03-23T06:39:30;1.73;;;1.40;;
56599;SDS011;51832;48.152;11.530;2024-03-23T06:44:30;2.30;;;1.55;;
56599;SDS011;51832;48.152;11.530;2024-03-23T06:49:31;1.95;;;1.75;;
56599;SDS011;51832;48.152;11.530;2024-03-23T06:54:32;3.17;;;2.00;;
56599;SDS011;51832;48.152;11.530;2024-03-23T06:59:32;2.38;;;1.52;;
56599;SDS011;51832;48.152;11.530;2024-03-23T07:04:33;4.10;;;1.67;;
56599;SDS011;51832;48.152;11.530;2024-03-23T07:09:34;3.35;;;1.90;;
56599;SDS011;51832;48.152;11.530;2024-03-23T07:14:34;7.55;;;4.47;;
56599;SDS011;51832;48.152;11.530;2024-03-23T07:19:35;2.85;;;1.90;;
56599;SDS011;51832;48.152;11.530;2024-03-23T07:24:35;3.08;;;1.70;;
56599;SDS011;51832;48.152;11.530;2024-03-23T07:29:36;1.73;;;1.40;;
56599;SDS011;51832;48.152;11.530;2024-03-23T07:34:37;2.58;;;1.70;;
56599;SDS011;51832;48.152;11.530;2024-03-23T07:39:38;2.13;;;1.73;;
56599;SDS011;51832;48.152;11.530;2024-03-23T07:44:39;2.10;;;1.88;;
56599;SDS011;51832;48.152;11.530;2024-03-23T07:49:40;3.20;;;1.92;;
56599;SDS011;51832;48.152;11.530;2024-03-23T07:54:41;4.72;;;2.85;;
56599;SDS011;51832;48.152;11.530;2024-03-23T07:59:41;4.38;;;1.90;;
56599;SDS011;51832;48.152;11.530;2024-03-23T08:04:42;2.90;;;2.10;;
56599;SDS011;51832;48.152;11.530;2024-03-23T08:09:42;2.65;;;2.10;;
56599;SDS011;51832;48.152;11.530;2024-03-23T08:14:44;3.58;;;2.58;;
56599;SDS011;51832;48.152;11.530;2024-03-23T08:19:44;2.78;;;2.28;;
56599;SDS011;51832;48.152;11.530;2024-03-23T08:24:45;3.05;;;2.20;;
56599;SDS011;51832;48.152;11.530;2024-03-23T08:29:46;3.72;;;2.38;;
56599;SDS011;51832;48.152;11.530;2024-03-23T08:34:46;3.03;;;1.90;;
56599;SDS011;51832;48.152;11.530;2024-03-23T08:39:47;2.25;;;1.48;;
56599;SDS011;51832;48.152;11.530;2024-03-23T08:44:47;3.22;;;1.73;;
56599;SDS011;51832;48.152;11.530;2024-03-23T08:49:50;2.20;;;1.77;;
56599;SDS011;51832;48.152;11.530;2024-03-23T08:54:51;2.90;;;1.92;;
56599;SDS011;51832;48.152;11.530;2024-03-23T08:59:52;4.00;;;2.78;;
56599;SDS011;51832;48.152;11.530;2024-03-23T09:04:52;2.72;;;1.80;;
56599;SDS011;51832;48.152;11.530;2024-03-23T09:09:53;3.15;;;1.70;;
56599;SDS011;51832;48.152;11.530;2024-03-23T09:14:53;4.55;;;2.15;;
56599;SDS011;51832;48.152;11.530;2024-03-23T09:19:55;2.60;;;2.28;;
56599;SDS011;51832;48.152;11.530;2024-03-23T09:24:56;4.30;;;2.55;;
56599;SDS011;51832;48.152;11.530;2024-03-23T09:29:57;3.75;;;2.45;;
56599;SDS011;51832;48.152;11.530;2024-03-23T09:34:57;3.20;;;2.13;;
56599;SDS011;51832;48.152;11.530;2024-03-23T09:39:58;2.20;;;1.60;;
56599;SDS011;51832;48.152;11.530;2024-03-23T09:44:58;1.95;;;1.20;;
56599;SDS011;51832;48.152;11.530;2024-03-23T09:50:00;2.45;;;1.00;;
56599;SDS011;51832;48.152;11.530;2024-03-23T09:55:01;1.30;;;0.93;;
56599;SDS011;51832;48.152;11.530;2024-03-23T10:00:02;1.85;;;1.10;;
56599;SDS011;51832;48.152;11.530;2024-03-23T10:05:03;1.00;;;0.63;;
56599;SDS011;51832;48.152;11.530;2024-03-23T10:10:10;0.75;;;0.70;;
56599;SDS011;51832;48.152;11.530;2024-03-23T10:15:18;1.48;;;0.80;;
56599;SDS011;51832;48.152;11.530;2024-03-23T10:20:20;3.13;;;1.25;;
56599;SDS011;51832;48.152;11.530;2024-03-23T10:25:25;1.63;;;1.00;;
56599;SDS011;51832;48.152;11.530;2024-03-23T10:30:26;1.48;;;1.00;;
56599;SDS011;51832;48.152;11.530;2024-03-23T10:35:28;1.10;;;0.85;;
56599;SDS011;51832;48.152;11.530;2024-03-23T10:40:28;1.42;;;0.85;;
56599;SDS011;51832;48.152;11.530;2024-03-23T10:45:30;0.88;;;0.73;;
56599;SDS011;51832;48.152;11.530;2024-03-23T10:50:31;0.85;;;0.60;;
56599;SDS011;51832;48.152;11.530;2024-03-23T10:55:32;0.52;;;0.40;;
56599;SDS011;51832;48.152;11.530;2024-03-23T11:00:34;0.85;;;0.60;;
56599;SDS011;51832;48.152;11.530;2024-03-23T11:05:37;1.00;;;0.68;;
56599;SDS011;51832;48.152;11.530;2024-03-23T11:10:37;1.60;;;0.70;;
56599;SDS011;51832;48.152;11.530;2024-03-23T11:15:38;1.17;;;0.60;;
56599;SDS011;51832;48.152;11.530;2024-03-23T11:20:38;1.35;;;1.05;;
56599;SDS011;51832;48.152;11.530;2024-03-23T11:25:39;2.20;;;0.90;;
56599;SDS011;51832;48.152;11.530;2024-03-23T11:30:39;3.80;;;0.90;;
56599;SDS011;51832;48.152;11.530;2024-03-23T11:35:40;2.25;;;0.85;;
56599;SDS011;51832;48.152;11.530;2024-03-23T11:40:42;3.45;;;1.70;;
56599;SDS011;51832;48.152;11.530;2024-03-23T11:45:52;0.82;;;0.80;;
56599;SDS011;51832;48.152;11.530;2024-03-23T11:50:55;2.92;;;1.10;;
56599;SDS011;51832;48.152;11.530;2024-03-23T11:55:58;1.20;;;1.10;;
56599;SDS011;51832;48.152;11.530;2024-03-23T12:06:03;1.90;;;1.17;;
56599;SDS011;51832;48.152;11.530;2024-03-23T12:11:06;2.83;;;1.00;;
56599;SDS011;51832;48.152;11.530;2024-03-23T12:16:14;2.00;;;1.13;;
56599;SDS011;51832;48.152;11.530;2024-03-23T12:21:17;2.28;;;1.40;;
56599;SDS011;51832;48.152;11.530;2024-03-23T12:26:17;2.90;;;1.60;;
56599;SDS011;51832;48.152;11.530;2024-03-23T12:31:18;2.70;;;1.60;;
56599;SDS011;51832;48.152;11.530;2024-03-23T12:36:18;4.60;;;2.33;;
56599;SDS011;51832;48.152;11.530;2024-03-23T12:41:19;2.28;;;1.42;;
56599;SDS011;51832;48.152;11.530;2024-03-23T12:46:19;4.38;;;1.92;;
56599;SDS011;51832;48.152;11.530;2024-03-23T12:51:20;2.20;;;1.52;;
56599;SDS011;51832;48.152;11.530;2024-03-23T12:56:21;4.13;;;1.73;;
56599;SDS011;51832;48.152;11.530;2024-03-23T13:01:21;2.25;;;1.65;;
56599;SDS011;51832;48.152;11.530;2024-03-23T13:06:22;3.03;;;1.40;;
56599;SDS011;51832;48.152;11.530;2024-03-23T13:11:23;3.67;;;1.58;;
56599;SDS011;51832;48.152;11.530;2024-03-23T13:16:23;2.10;;;1.60;;
56599;SDS011;51832;48.152;11.530;2024-03-23T13:21:24;5.13;;;1.70;;
56599;SDS011;51832;48.152;11.530;2024-03-23T13:26:25;5.10;;;1.70;;
56599;SDS011;51832;48.152;11.530;2024-03-23T13:31:25;4.75;;;1.73;;
56599;SDS011;51832;48.152;11.530;2024-03-23T13:36:26;2.13;;;1.60;;
56599;SDS011;51832;48.152;11.530;2024-03-23T13:41:26;4.57;;;1.95;;
56599;SDS011;51832;48.152;11.530;2024-03-23T13:46:27;3.78;;;1.70;;
56599;SDS011;51832;48.152;11.530;2024-03-23T13:51:28;3.90;;;1.77;;
56599;SDS011;51832;48.152;11.530;2024-03-23T13:56:28;4.80;;;2.83;;
56599;SDS011;51832;48.152;11.530;2024-03-23T14:01:29;2.53;;;1.88;;
56599;SDS011;51832;48.152;11.530;2024-03-23T14:06:29;7.35;;;2.60;;
56599;SDS011;51832;48.152;11.530;2024-03-23T14:11:30;4.45;;;2.25;;
56599;SDS011;51832;48.152;11.530;2024-03-23T14:16:31;4.60;;;2.30;;
56599;SDS011;51832;48.152;11.530;2024-03-23T14:21:31;8.10;;;3.20;;
56599;SDS011;51832;48.152;11.530;2024-03-23T14:26:32;4.88;;;2.60;;
56599;SDS011;51832;48.152;11.530;2024-03-23T14:31:33;6.32;;;2.33;;
56599;SDS011;51832;48.152;11.530;2024-03-23T14:36:33;3.58;;;1.83;;
56599;SDS011;51832;48.152;11.530;2024-03-23T14:41:34;1.80;;;1.17;;
56599;SDS011;51832;48.152;11.530;2024-03-23T14:46:35;2.45;;;1.20;;
56599;SDS011;51832;48.152;11.530;2024-03-23T14:51:35;2.85;;;1.15;;
56599;SDS011;51832;48.152;11.530;2024-03-23T14:56:36;3.75;;;1.27;;
56599;SDS011;51832;48.152;11.530;2024-03-23T15:01:37;3.53;;;1.60;;
56599;SDS011;51832;48.152;11.530;2024-03-23T15:06:37;3.08;;;1.23;;
56599;SDS011;51832;48.152;11.530;2024-03-23T15:11:38;2.50;;;1.15;;
56599;SDS011;51832;48.152;11.530;2024-03-23T15:16:38;2.58;;;1.33;;
56599;SDS011;51832;48.152;11.530;2024-03-23T15:21:39;4.75;;;1.48;;
56599;SDS011;51832;48.152;11.530;2024-03-23T15:26:39;6.80;;;1.73;;
56599;SDS011;51832;48.152;11.530;2024-03-23T15:31:41;2.95;;;1.30;;
56599;SDS011;51832;48.152;11.530;2024-03-23T15:36:42;2.15;;;1.60;;
56599;SDS011;51832;48.152;11.530;2024-03-23T15:41:45;3.47;;;1.90;;
56599;SDS011;51832;48.152;11.530;2024-03-23T15:46:46;5.85;;;1.60;;
56599;SDS011;51832;48.152;11.530;2024-03-23T15:51:46;2.30;;;1.65;;
56599;SDS011;51832;48.152;11.530;2024-03-23T15:56:47;3.72;;;1.50;;
56599;SDS011;51832;48.152;11.530;2024-03-23T16:01:47;2.03;;;1.40;;
56599;SDS011;51832;48.152;11.530;2024-03-23T16:06:48;4.63;;;1.80;;
56599;SDS011;51832;48.152;11.530;2024-03-23T16:11:49;3.33;;;1.77;;
56599;SDS011;51832;48.152;11.530;2024-03-23T16:16:49;2.67;;;1.73;;
56599;SDS011;51832;48.152;11.530;2024-03-23T16:21:50;4.13;;;2.05;;
56599;SDS011;51832;48.152;11.530;2024-03-23T16:26:50;2.47;;;1.70;;
56599;SDS011;51832;48.152;11.530;2024-03-23T16:31:51;4.70;;;1.63;;
56599;SDS011;51832;48.152;11.530;2024-03-23T16:36:51;4.93;;;1.98;;
56599;SDS011;51832;48.152;11.530;2024-03-23T16:41:52;5.05;;;2.50;;
56599;SDS011;51832;48.152;11.530;2024-03-23T16:46:52;3.22;;;1.90;;
56599;SDS011;51832;48.152;11.530;2024-03-23T16:51:53;2.60;;;1.70;;
56599;SDS011;51832;48.152;11.530;2024-03-23T16:56:54;2.65;;;1.88;;
56599;SDS011;51832;48.152;11.530;2024-03-23T17:01:54;6.82;;;2.50;;
56599;SDS011;51832;48.152;11.530;2024-03-23T17:06:55;3.60;;;2.17;;
56599;SDS011;51832;48.152;11.530;2024-03-23T17:11:55;4.20;;;2.50;;
56599;SDS011;51832;48.152;11.530;2024-03-23T17:16:55;4.65;;;2.20;;
56599;SDS011;51832;48.152;11.530;2024-03-23T17:21:56;2.85;;;2.03;;
56599;SDS011;51832;48.152;11.530;2024-03-23T17:26:57;1.75;;;1.35;;
56599;SDS011;51832;48.152;11.530;2024-03-23T17:31:58;2.67;;;1.40;;
56599;SDS011;51832;48.152;11.530;2024-03-23T17:36:58;1.13;;;0.75;;
56599;SDS011;51832;48.152;11.530;2024-03-23T17:41:59;2.55;;;0.80;;
56599;SDS011;51832;48.152;11.530;2024-03-23T17:46:59;3.33;;;1.40;;
56599;SDS011;51832;48.152;11.530;2024-03-23T17:52:00;2.33;;;1.15;;
56599;SDS011;51832;48.152;11.530;2024-03-23T17:57:10;2.08;;;0.80;;
56599;SDS011;51832;48.152;11.530;2024-03-23T18:02:11;7.00;;;3.00;;
56599;SDS011;51832;48.152;11.530;2024-03-23T18:07:11;2.28;;;1.38;;
56599;SDS011;51832;48.152;11.530;2024-03-23T18:12:12;3.53;;;1.20;;
56599;SDS011;51832;48.152;11.530;2024-03-23T18:17:13;1.25;;;0.80;;
56599;SDS011;51832;48.152;11.530;2024-03-23T18:22:14;3.90;;;0.95;;
56599;SDS011;51832;48.152;11.530;2024-03-23T18:27:14;1.15;;;0.90;;
56599;SDS011;51832;48.152;11.530;2024-03-23T18:32:15;2.55;;;0.70;;
56599;SDS011;51832;48.152;11.530;2024-03-23T18:37:15;2.13;;;1.10;;
56599;SDS011;51832;48.152;11.530;2024-03-23T18:42:16;0.93;;;0.60;;
56599;SDS011;51832;48.152;11.530;2024-03-23T18:47:16;2.58;;;1.10;;
56599;SDS011;51832;48.152;11.530;2024-03-23T18:52:17;1.58;;;0.68;;
56599;SDS011;51832;48.152;11.530;2024-03-23T18:57:18;1.77;;;0.93;;
56599;SDS011;51832;48.152;11.530;2024-03-23T19:02:19;4.38;;;1.40;;
56599;SDS011;51832;48.152;11.530;2024-03-23T19:07:19;1.35;;;0.90;;
56599;SDS011;51832;48.152;11.530;2024-03-23T19:12:20;2.22;;;1.25;;
56599;SDS011;51832;48.152;11.530;2024-03-23T19:17:20;1.88;;;0.98;;
56599;SDS011;51832;48.152;11.530;2024-03-23T19:22:21;2.60;;;1.17;;
56599;SDS011;51832;48.152;11.530;2024-03-23T19:27:21;3.85;;;1.30;;
56599;SDS011;51832;48.152;11.530;2024-03-23T19:32:22;2.13;;;1.33;;
56599;SDS011;51832;48.152;11.530;2024-03-23T19:37:23;4.55;;;1.50;;
56599;SDS011;51832;48.152;11.530;2024-03-23T19:42:23;3.40;;;1.63;;
56599;SDS011;51832;48.152;11.530;2024-03-23T19:47:24;3.25;;;1.60;;
56599;SDS011;51832;48.152;11.530;2024-03-23T19:52:24;6.18;;;1.50;;
56599;SDS011;51832;48.152;11.530;2024-03-23T19:57:25;2.40;;;1.70;;
56599;SDS011;51832;48.152;11.530;2024-03-23T20:02:26;3.40;;;1.42;;
56599;SDS011;51832;48.152;11.530;2024-03-23T20:07:26;3.33;;;1.70;;
56599;SDS011;51832;48.152;11.530;2024-03-23T20:12:27;2.95;;;1.63;;
56599;SDS011;51832;48.152;11.530;2024-03-23T20:17:28;3.72;;;1.58;;
56599;SDS011;51832;48.152;11.530;2024-03-23T20:22:29;4.22;;;1.98;;
56599;SDS011;51832;48.152;11.530;2024-03-23T20:27:29;2.25;;;1.42;;
56599;SDS011;51832;48.152;11.530;2024-03-23T20:32:30;1.90;;;1.50;;
56599;SDS011;51832;48.152;11.530;2024-03-23T20:37:31;3.45;;;2.80;;
56599;SDS011;51832;48.152;11.530;2024-03-23T20:42:31;2.72;;;1.52;;
56599;SDS011;51832;48.152;11.530;2024-03-23T20:47:32;4.57;;;1.88;;
56599;SDS011;51832;48.152;11.530;2024-03-23T20:57:36;3.38;;;1.45;;
56599;SDS011;51832;48.152;11.530;2024-03-23T21:02:36;3.20;;;1.63;;
56599;SDS011;51832;48.152;11.530;2024-03-23T21:07:37;1.60;;;1.33;;
56599;SDS011;51832;48.152;11.530;2024-03-23T21:12:37;2.85;;;1.25;;
56599;SDS011;51832;48.152;11.530;2024-03-23T21:17:38;2.58;;;1.35;;
56599;SDS011;51832;48.152;11.530;2024-03-23T21:22:38;2.83;;;1.10;;
56599;SDS011;51832;48.152;11.530;2024-03-23T21:27:39;2.05;;;1.25;;
56599;SDS011;51832;48.152;11.530;2024-03-23T21:32:40;1.30;;;1.10;;
56599;SDS011;51832;48.152;11.530;2024-03-23T21:37:40;1.30;;;0.93;;
56599;SDS011;51832;48.152;11.530;2024-03-23T21:42:41;2.17;;;1.00;;
56599;SDS011;51832;48.152;11.530;2024-03-23T21:47:42;1.70;;;1.20;;
56599;SDS011;51832;48.152;11.530;2024-03-23T21:52:43;1.38;;;1.02;;
56599;SDS011;51832;48.152;11.530;2024-03-23T21:57:46;2.30;;;0.90;;
56599;SDS011;51832;48.152;11.530;2024-03-23T22:02:48;1.60;;;1.08;;
56599;SDS011;51832;48.152;11.530;2024-03-23T22:07:49;1.77;;;0.80;;
56599;SDS011;51832;48.152;11.530;2024-03-23T22:12:49;1.58;;;0.60;;
56599;SDS011;51832;48.152;11.530;2024-03-23T22:17:50;1.20;;;0.90;;
56599;SDS011;51832;48.152;11.530;2024-03-23T22:22:50;0.88;;;0.68;;
56599;SDS011;51832;48.152;11.530;2024-03-23T22:27:51;1.80;;;0.80;;
56599;SDS011;51832;48.152;11.530;2024-03-23T22:32:52;1.05;;;0.70;;
56599;SDS011;51832;48.152;11.530;2024-03-23T22:37:54;2.28;;;0.60;;
56599;SDS011;51832;48.152;11.530;2024-03-23T22:42:55;0.60;;;0.60;;
56599;SDS011;51832;48.152;11.530;2024-03-23T22:47:55;1.02;;;0.75;;
56599;SDS011;51832;48.152;11.530;2024-03-23T22:52:56;1.00;;;0.90;;
56599;SDS011;51832;48.152;11.530;2024-03-23T22:57:57;1.50;;;0.82;;
56599;SDS011;51832;48.152;11.530;2024-03-23T23:02:57;1.85;;;0.77;;
56599;SDS011;51832;48.152;11.530;2024-03-23T23:07:58;1.48;;;0.70;;
56599;SDS011;51832;48.152;11.530;2024-03-23T23:12:58;4.10;;;1.27;;
56599;SDS011;51832;48.152;11.530;2024-03-23T23:17:59;1.02;;;0.82;;
56599;SDS011;51832;48.152;11.530;2024-03-23T23:22:59;1.92;;;1.10;;
56599;SDS011;51832;48.152;11.530;2024-03-23T23:28:00;2.05;;;1.00;;
56599;SDS011;51832;48.152;11.530;2024-03-23T23:33:00;1.35;;;0.80;;
56599;SDS011;51832;48.152;11.530;2024-03-23T23:38:01;1.17;;;0.80;;
56599;SDS011;51832;48.152;11.530;2024-03-23T23:43:02;1.65;;;0.75;;
56599;SDS011;51832;48.152;11.530;2024-03-23T23:48:02;3.22;;;0.82;;
56599;SDS011;51832;48.152;11.530;2024-03-23T23:53:03;0.70;;;0.70;;
56599;SDS011;51832;48.152;11.530;2024-03-23T23:58:04;1.00;;;0.60;;
